Terminal Aerodrome Forecast
Issued by NWS

Home | Current Version | Previous Version | Text Only | Print | Product List | Glossary On
Versions: 1 2 3 4 5 6 7 8 9 10 11 12 13 14 15 16
000
FTUS45 KRIW 212300
TAFWRL
TAF
KWRL 212325Z 2200/2224 24014G20KT P6SM SCT080
     FM220200 33011KT P6SM SCT120
     FM220800 VRB05KT P6SM FEW150=

USA.gov is the U.S. government's official web portal to all federal, state and local government web resources and services.